Impacts TAF Board INFO
FOR SITUATIONAL AWARENESS. NOT TO BE USED FOR FLIGHT PLANNING PURPOSES.
IDs:

KSAN - San Diego Intl Arpt, CA, US

Issued at 1733 UTC 15 Aug 2018
Updated at 2043 UTC 15 Aug 2018
Potential Impact None Slight Moderate High
Time<<16/21Z 16/22Z 16/23Z 17/00Z 17/01Z 17/02Z 17/03Z 17/04Z 17/05Z 17/06Z 17/07Z 17/08Z 17/09Z
Type PRVL PRVL PRVL
VIS >6 >6 >6
CIG 100 100 100
Cover BKN BKN BKN
FltCat VFR VFR VFR
WX -- -- --
WDir 280 280 280
WSpd 8 8 8
WGst -- -- --

Raw TAF
KSAN 151733Z 1518/1624 25006KT P6SM OVC020
  FM152100 28009KT P6SM SCT020 SCT070
  FM160300 28005KT P6SM BKN020
  FM160600 VRB04KT P6SM OVC018
  FM161900 28008KT P6SM SCT020 BKN100


METAR Board
Radar Display
Forecast Discussion

FOR SITUATIONAL AWARENESS. NOT TO BE USED FOR FLIGHT PLANNING PURPOSES.